createdAt,value
2019-03-29T00:02:01.199Z,6.39
2019-03-29T00:06:06.096Z,6.33
2019-03-29T00:10:11.063Z,6.22
2019-03-29T00:14:16.124Z,6.12
2019-03-29T00:18:20.932Z,6.14
2019-03-29T00:22:25.830Z,6.17
2019-03-29T00:26:30.743Z,5.99
2019-03-29T00:30:35.640Z,5.93
2019-03-29T00:34:41.905Z,5.93
2019-03-29T00:38:46.909Z,5.95
2019-03-29T00:42:51.805Z,5.86
2019-03-29T00:46:56.712Z,5.71
2019-03-29T00:51:01.607Z,5.72
2019-03-29T00:55:07.571Z,5.72
2019-03-29T00:59:12.463Z,5.53
2019-03-29T01:03:17.369Z,5.64
2019-03-29T01:07:22.243Z,5.65
2019-03-29T01:11:27.131Z,5.68
2019-03-29T01:15:32.023Z,5.58
2019-03-29T01:19:36.919Z,5.55
2019-03-29T01:23:41.809Z,5.59
2019-03-29T01:27:46.706Z,5.47
2019-03-29T01:31:51.611Z,5.38
2019-03-29T01:35:56.508Z,5.30
2019-03-29T01:40:01.404Z,5.20
2019-03-29T01:44:06.288Z,5.17
2019-03-29T01:48:11.182Z,5.13
2019-03-29T01:52:17.046Z,5.04
2019-03-29T01:56:21.936Z,4.97
2019-03-29T02:00:34.316Z,4.99
2019-03-29T02:04:39.144Z,4.98
2019-03-29T02:08:44.027Z,4.97
2019-03-29T02:12:48.923Z,5.10
2019-03-29T02:16:53.815Z,5.21
2019-03-29T02:20:58.717Z,5.37
2019-03-29T02:25:05.228Z,5.56
2019-03-29T02:29:10.955Z,5.69
2019-03-29T02:33:15.909Z,5.81
2019-03-29T02:37:20.805Z,5.99
2019-03-29T02:41:25.706Z,6.12
2019-03-29T02:45:30.825Z,6.28
2019-03-29T02:49:35.976Z,6.40
2019-03-29T02:53:40.864Z,6.52
2019-03-29T02:57:45.765Z,6.65
2019-03-29T03:01:50.675Z,6.65
2019-03-29T03:05:55.550Z,6.55
2019-03-29T03:10:00.587Z,6.50
2019-03-29T03:14:05.545Z,6.50
2019-03-29T03:18:10.443Z,6.52
2019-03-29T03:22:15.342Z,6.48
2019-03-29T03:26:20.242Z,6.43
2019-03-29T03:30:25.249Z,6.42
2019-03-29T03:34:30.089Z,6.45
2019-03-29T03:38:34.980Z,6.41
2019-03-29T03:42:39.885Z,6.41
2019-03-29T03:46:44.791Z,6.54
2019-03-29T03:50:50.829Z,6.55
2019-03-29T03:54:55.729Z,6.57
2019-03-29T03:59:01.648Z,6.48
2019-03-29T04:03:06.551Z,6.48
2019-03-29T04:07:11.437Z,6.41
2019-03-29T04:11:16.329Z,6.38
2019-03-29T04:15:21.230Z,6.39
2019-03-29T04:19:26.159Z,6.36
2019-03-29T04:23:31.008Z,6.36
2019-03-29T04:27:35.955Z,6.29
2019-03-29T04:31:40.841Z,6.14
2019-03-29T04:35:45.740Z,6.01
2019-03-29T04:40:06.241Z,5.92
2019-03-29T04:43:57.221Z,5.79
2019-03-29T04:48:02.128Z,5.74
2019-03-29T04:52:07.024Z,5.65
2019-03-29T04:56:11.941Z,5.44
2019-03-29T05:00:16.900Z,5.29
2019-03-29T05:04:21.786Z,5.17
2019-03-29T05:08:26.684Z,5.02
2019-03-29T05:12:31.578Z,4.99
2019-03-29T05:16:36.559Z,4.94
2019-03-29T05:20:41.455Z,4.89
2019-03-29T05:24:46.340Z,4.82
2019-03-29T05:28:51.241Z,4.81
2019-03-29T05:32:56.137Z,4.81
2019-03-29T05:37:01.032Z,4.88
2019-03-29T05:41:05.953Z,4.98
2019-03-29T05:45:10.903Z,5.10
2019-03-29T05:49:15.808Z,5.24
2019-03-29T05:53:20.703Z,5.26
2019-03-29T05:57:25.602Z,5.26
2019-03-29T06:01:30.496Z,5.30
2019-03-29T06:05:35.399Z,5.31
2019-03-29T06:09:40.281Z,5.42
2019-03-29T06:13:45.179Z,5.55
2019-03-29T06:17:50.073Z,5.57
2019-03-29T06:21:54.970Z,5.72
2019-03-29T06:25:59.863Z,5.74
2019-03-29T06:30:06.772Z,5.91
2019-03-29T06:34:11.676Z,6.14
2019-03-29T06:38:16.913Z,6.50
2019-03-29T06:42:21.818Z,8.36
2019-03-29T06:46:26.718Z,12.09
2019-03-29T06:50:31.620Z,14.25
2019-03-29T06:54:36.520Z,14.80
2019-03-29T06:58:41.421Z,14.25
2019-03-29T07:02:46.322Z,12.89
2019-03-29T07:06:51.228Z,11.32
2019-03-29T07:10:56.145Z,10.39
2019-03-29T07:15:01.044Z,9.87
2019-03-29T07:19:05.945Z,9.65
2019-03-29T07:23:10.843Z,9.53
2019-03-29T07:27:15.740Z,9.51
2019-03-29T07:31:20.649Z,9.60
2019-03-29T07:35:25.537Z,9.83
2019-03-29T07:39:30.451Z,10.06
2019-03-29T07:43:35.359Z,10.23
2019-03-29T07:47:40.289Z,10.38
2019-03-29T07:51:45.206Z,10.55
2019-03-29T07:55:50.113Z,10.67
2019-03-29T07:59:55.017Z,10.85
2019-03-29T08:03:59.916Z,11.04
2019-03-29T08:08:04.862Z,11.21
2019-03-29T08:12:09.775Z,11.36
2019-03-29T08:16:14.679Z,11.48
2019-03-29T08:20:43.631Z,11.57
2019-03-29T08:24:26.209Z,11.69
2019-03-29T08:28:31.108Z,11.82
2019-03-29T08:32:36.017Z,11.90
2019-03-29T08:36:40.931Z,12.07
2019-03-29T08:40:46.794Z,12.14
2019-03-29T08:44:51.704Z,12.24
2019-03-29T08:48:56.616Z,12.29
2019-03-29T08:53:01.998Z,12.38
2019-03-29T08:57:10.349Z,12.39
2019-03-29T09:01:13.495Z,12.47
2019-03-29T09:05:18.397Z,12.56
2019-03-29T09:09:23.308Z,12.66
2019-03-29T09:13:28.209Z,12.68
2019-03-29T09:17:33.954Z,12.78
2019-03-29T09:21:38.869Z,12.95
2019-03-29T09:25:44.396Z,13.26
2019-03-29T09:29:49.305Z,13.57
2019-03-29T09:33:54.210Z,13.68
2019-03-29T09:37:59.116Z,13.71
2019-03-29T09:42:04.103Z,13.85
2019-03-29T09:46:08.993Z,14.05
2019-03-29T09:50:14.232Z,14.26
2019-03-29T09:54:20.568Z,14.49
2019-03-29T09:58:25.610Z,14.66
2019-03-29T10:02:30.517Z,14.92
2019-03-29T10:06:35.399Z,15.19
2019-03-29T10:10:40.301Z,15.28
2019-03-29T10:14:45.203Z,15.49
2019-03-29T10:18:50.117Z,15.59
2019-03-29T10:22:55.021Z,15.47
2019-03-29T10:26:59.928Z,15.60
2019-03-29T10:31:04.818Z,15.60
2019-03-29T10:35:09.813Z,15.79
2019-03-29T10:39:15.774Z,16.03
2019-03-29T10:43:20.672Z,16.24
2019-03-29T10:47:40.864Z,16.23
2019-03-29T10:51:32.243Z,15.91
2019-03-29T10:55:37.142Z,15.76
2019-03-29T10:59:42.041Z,15.91
2019-03-29T11:03:46.944Z,16.14
2019-03-29T11:07:51.847Z,16.41
2019-03-29T11:11:56.800Z,16.51
2019-03-29T11:16:01.872Z,16.31
2019-03-29T11:20:07.138Z,16.51
2019-03-29T11:24:12.037Z,16.60
2019-03-29T11:28:16.941Z,16.63
2019-03-29T11:32:21.835Z,16.52
2019-03-29T11:36:26.729Z,16.09
2019-03-29T11:40:31.634Z,15.95
2019-03-29T11:44:36.535Z,15.85
2019-03-29T11:48:41.432Z,15.95
2019-03-29T11:52:46.331Z,16.10
2019-03-29T11:56:51.216Z,16.15
2019-03-29T12:00:56.187Z,15.91
2019-03-29T12:05:01.090Z,15.46
2019-03-29T12:09:07.125Z,15.32
2019-03-29T12:13:12.091Z,15.48
2019-03-29T12:17:17.041Z,15.62
2019-03-29T12:21:21.945Z,15.76
2019-03-29T12:25:26.832Z,15.76
2019-03-29T12:29:31.726Z,15.76
2019-03-29T12:33:36.635Z,15.81
2019-03-29T12:37:41.536Z,15.83
2019-03-29T12:41:46.430Z,15.55
2019-03-29T12:45:51.325Z,15.26
2019-03-29T12:49:56.225Z,14.91
2019-03-29T12:54:01.128Z,14.96
2019-03-29T12:58:06.025Z,14.96
2019-03-29T13:02:11.284Z,15.33
2019-03-29T13:06:16.184Z,15.41
2019-03-29T13:10:21.091Z,15.49
2019-03-29T13:14:26.022Z,15.50
2019-03-29T13:18:30.881Z,15.61
2019-03-29T13:22:35.781Z,15.67
2019-03-29T13:26:40.666Z,15.76
2019-03-29T13:30:45.561Z,15.91
2019-03-29T13:34:51.537Z,16.01
2019-03-29T13:38:56.654Z,16.17
2019-03-29T13:43:01.541Z,16.20
2019-03-29T13:47:06.434Z,16.16
2019-03-29T13:51:11.328Z,16.29
2019-03-29T13:55:16.246Z,16.49
2019-03-29T13:59:21.143Z,16.58
2019-03-29T14:03:26.053Z,16.60
2019-03-29T14:07:30.936Z,16.55
2019-03-29T14:11:35.835Z,16.50
2019-03-29T14:15:40.736Z,16.52
2019-03-29T14:19:45.639Z,16.62
2019-03-29T14:23:50.562Z,16.67
2019-03-29T14:27:55.453Z,16.68
2019-03-29T14:32:00.349Z,16.59
2019-03-29T14:36:05.262Z,16.48
2019-03-29T14:40:10.690Z,16.40
2019-03-29T14:44:15.585Z,16.39
2019-03-29T14:48:20.479Z,16.33
2019-03-29T14:52:25.370Z,16.39
2019-03-29T14:56:30.334Z,16.39
2019-03-29T15:00:40.100Z,16.30
2019-03-29T15:04:45.033Z,16.22
2019-03-29T15:08:50.065Z,16.07
2019-03-29T15:12:56.022Z,16.18
2019-03-29T15:17:00.873Z,16.31
2019-03-29T15:21:05.767Z,16.45
2019-03-29T15:25:10.671Z,16.54
2019-03-29T15:29:15.587Z,16.56
2019-03-29T15:33:20.472Z,16.60
2019-03-29T15:37:25.381Z,16.61
2019-03-29T15:41:31.247Z,16.59
2019-03-29T15:45:36.139Z,16.52
2019-03-29T15:49:55.391Z,16.50
2019-03-29T15:53:49.465Z,16.45
2019-03-29T15:57:54.352Z,16.43
2019-03-29T16:01:59.250Z,16.46
2019-03-29T16:06:04.229Z,16.44
2019-03-29T16:10:10.182Z,16.35
2019-03-29T16:14:15.085Z,16.28
2019-03-29T16:18:19.979Z,16.25
2019-03-29T16:22:24.912Z,16.25
2019-03-29T16:26:29.780Z,16.24
2019-03-29T16:30:34.680Z,16.20
2019-03-29T16:34:39.582Z,16.12
2019-03-29T16:38:44.554Z,16.07
2019-03-29T16:42:49.439Z,16.01
2019-03-29T16:46:54.348Z,15.97
2019-03-29T16:50:59.243Z,15.89
2019-03-29T16:55:13.225Z,15.79
2019-03-29T16:59:12.611Z,15.69
2019-03-29T17:03:17.500Z,15.59
2019-03-29T17:07:22.398Z,15.51
2019-03-29T17:11:27.299Z,15.44
2019-03-29T17:15:32.866Z,15.36
2019-03-29T17:19:37.775Z,15.24
2019-03-29T17:23:42.664Z,15.14
2019-03-29T17:27:47.559Z,15.04
2019-03-29T17:31:52.458Z,14.93
2019-03-29T17:35:57.360Z,14.81
2019-03-29T17:40:02.260Z,14.72
2019-03-29T17:44:07.154Z,14.16
2019-03-29T17:48:12.052Z,14.16
2019-03-29T17:52:16.961Z,14.03
2019-03-29T17:56:21.867Z,13.79
2019-03-29T18:00:28.140Z,13.55
2019-03-29T18:04:33.046Z,13.33
2019-03-29T18:08:38.001Z,13.14
2019-03-29T18:12:42.925Z,13.04
2019-03-29T18:16:47.805Z,12.89
2019-03-29T18:20:52.781Z,12.73
2019-03-29T18:24:57.685Z,12.61
2019-03-29T18:29:02.582Z,12.48
2019-03-29T18:33:07.632Z,12.25
2019-03-29T18:37:14.373Z,12.10
2019-03-29T18:41:19.287Z,11.91
2019-03-29T18:45:24.202Z,11.58
2019-03-29T18:49:29.106Z,11.41
2019-03-29T18:53:34.003Z,11.32
2019-03-29T18:57:38.912Z,11.24
2019-03-29T19:01:43.826Z,11.04
2019-03-29T19:05:48.722Z,10.96
2019-03-29T19:09:53.629Z,10.92
2019-03-29T19:13:58.530Z,10.84
2019-03-29T19:18:03.441Z,10.72
2019-03-29T19:22:08.334Z,10.49
2019-03-29T19:26:13.239Z,10.16
2019-03-29T19:30:19.286Z,9.91
2019-03-29T19:34:24.175Z,9.79
2019-03-29T19:38:29.072Z,9.65
2019-03-29T19:42:35.035Z,9.34
2019-03-29T19:46:40.019Z,9.23
2019-03-29T19:50:45.812Z,9.12
2019-03-29T19:54:50.726Z,8.83
2019-03-29T19:58:55.623Z,8.84
2019-03-29T20:03:00.569Z,8.85
2019-03-29T20:07:05.425Z,8.77
2019-03-29T20:11:10.332Z,8.82
2019-03-29T20:15:15.224Z,8.62
2019-03-29T20:19:20.311Z,8.39
2019-03-29T20:23:25.183Z,8.39
2019-03-29T20:27:30.085Z,8.27
2019-03-29T20:31:34.975Z,8.24
2019-03-29T20:35:39.879Z,8.11
2019-03-29T20:39:44.770Z,8.10
2019-03-29T20:43:49.667Z,8.11
2019-03-29T20:47:54.573Z,8.00
2019-03-29T20:51:59.471Z,7.94
2019-03-29T20:56:06.490Z,7.81
2019-03-29T21:00:13.559Z,7.71
2019-03-29T21:04:18.457Z,7.67
2019-03-29T21:08:23.363Z,7.44
2019-03-29T21:12:28.263Z,7.35
2019-03-29T21:16:33.159Z,7.25
2019-03-29T21:20:38.049Z,7.09
2019-03-29T21:24:42.944Z,7.03
2019-03-29T21:28:47.843Z,7.02
2019-03-29T21:32:52.744Z,7.11
2019-03-29T21:36:57.646Z,7.14
2019-03-29T21:41:02.533Z,7.12
2019-03-29T21:45:08.567Z,7.00
2019-03-29T21:49:13.479Z,6.92
2019-03-29T21:53:18.451Z,6.89
2019-03-29T21:57:23.354Z,6.83
2019-03-29T22:01:28.235Z,6.79
2019-03-29T22:05:33.136Z,6.63
2019-03-29T22:09:38.037Z,6.52
2019-03-29T22:13:42.939Z,6.37
2019-03-29T22:17:47.836Z,6.29
2019-03-29T22:21:52.738Z,6.16
2019-03-29T22:25:57.623Z,6.27
2019-03-29T22:30:02.593Z,6.21
2019-03-29T22:34:07.488Z,6.25
2019-03-29T22:38:12.387Z,6.12
2019-03-29T22:42:17.290Z,5.96
2019-03-29T22:46:22.175Z,5.88
2019-03-29T22:50:27.068Z,5.85
2019-03-29T22:54:31.965Z,5.91
2019-03-29T22:58:36.866Z,5.86
2019-03-29T23:02:41.834Z,5.74
2019-03-29T23:06:46.726Z,5.70
2019-03-29T23:10:51.623Z,5.69
2019-03-29T23:14:56.519Z,5.73
2019-03-29T23:19:06.753Z,5.70
2019-03-29T23:23:08.015Z,5.54
2019-03-29T23:27:12.903Z,5.36
2019-03-29T23:31:17.813Z,5.38
2019-03-29T23:35:22.702Z,5.41
2019-03-29T23:39:27.598Z,5.33
2019-03-29T23:43:32.566Z,5.27
2019-03-29T23:47:37.494Z,5.28
2019-03-29T23:51:42.356Z,5.21
2019-03-29T23:55:47.256Z,5.24
2019-03-29T23:59:52.164Z,5.31
